Time;durP1;ratioP1;P1;durP2;ratioP2;P2;SDS_P1;SDS_P2;PMS_P1;PMS_P2;Temp;Humidity;BMP_temperature;BMP_pressure;BME280_temperature;BME280_humidity;BME280_pressure;Samples;Min_cycle;Max_cycle;Signal;HPM_P1;HPM_P2
2023/03/24 00:01:10;;;;;;;10.25;4.22;;;;;;;10.26;100.00;94900.66;5032053;28;20628;-71
2023/03/24 00:03:36;;;;;;;8.00;3.95;;;;;;;10.08;100.00;94897.69;5039213;28;20095;-71
2023/03/24 00:06:04;;;;;;;13.02;4.45;;;;;;;9.99;100.00;94889.66;5044717;28;20041;-72
2023/03/24 00:08:34;;;;;;;10.35;4.30;;;;;;;9.85;100.00;94891.38;5046402;28;20206;-70
2023/03/24 00:11:03;;;;;;;7.82;4.25;;;;;;;9.79;100.00;94885.41;5041148;28;20041;-70
2023/03/24 00:13:30;;;;;;;7.20;4.13;;;;;;;9.82;100.00;94874.31;5035026;28;20037;-70
2023/03/24 00:15:57;;;;;;;9.63;4.10;;;;;;;9.84;100.00;94869.59;5034008;28;20048;-70
2023/03/24 00:18:24;;;;;;;8.90;4.10;;;;;;;9.92;100.00;94854.25;5044750;28;20043;-72
2023/03/24 00:20:57;;;;;;;7.00;4.57;;;;;;;9.93;100.00;94853.19;5050704;28;20044;-70
2023/03/24 00:23:31;;;;;;;8.43;3.80;;;;;;;10.01;100.00;94847.31;5039208;28;20505;-69
2023/03/24 00:26:14;;;;;;;11.52;4.47;;;;;;;10.07;100.00;94846.22;5034287;28;20057;-72
2023/03/24 00:28:42;;;;;;;8.05;4.30;;;;;;;9.96;100.00;94847.38;5044362;28;20123;-73
2023/03/24 00:31:09;;;;;;;6.63;4.28;;;;;;;9.86;100.00;94837.78;5048773;28;20044;-72
2023/03/24 00:33:35;;;;;;;10.18;4.97;;;;;;;9.83;100.00;94825.97;5040202;28;20037;-70
2023/03/24 00:36:04;;;;;;;8.13;4.80;;;;;;;9.78;100.00;94826.00;5048697;28;20041;-69
2023/03/24 00:38:30;;;;;;;12.13;4.93;;;;;;;9.72;100.00;94821.88;5049680;28;20055;-71
2023/03/24 00:40:56;;;;;;;9.35;4.63;;;;;;;9.68;100.00;94811.19;5048904;28;20041;-71
2023/03/24 00:43:21;;;;;;;9.32;4.35;;;;;;;9.66;100.00;94815.13;5042531;28;20037;-70
2023/03/24 00:45:47;;;;;;;7.75;4.30;;;;;;;9.68;100.00;94820.88;5036620;28;20057;-71
2023/03/24 00:48:14;;;;;;;11.60;4.90;;;;;;;9.68;100.00;94815.63;5033975;28;20048;-70
2023/03/24 00:50:44;;;;;;;8.82;4.50;;;;;;;9.68;100.00;94805.13;5043871;28;20045;-71
2023/03/24 00:53:10;;;;;;;10.18;4.95;;;;;;;9.69;100.00;94802.22;5045439;28;20037;-71
2023/03/24 00:55:36;;;;;;;8.57;4.35;;;;;;;9.71;100.00;94801.94;5044998;28;20037;-71
2023/03/24 00:58:03;;;;;;;6.63;4.15;;;;;;;9.57;100.00;94798.41;5033619;28;20124;-72
2023/03/24 01:00:29;;;;;;;7.70;4.80;;;;;;;9.58;100.00;94797.34;5046320;28;20037;-71
2023/03/24 01:02:56;;;;;;;7.00;4.30;;;;;;;9.58;100.00;94802.59;5043231;28;20045;-71
2023/03/24 01:05:29;;;;;;;9.45;4.57;;;;;;;9.50;100.00;94804.78;5041983;28;20056;-71
2023/03/24 01:08:02;;;;;;;10.75;4.50;;;;;;;9.50;100.00;94799.53;5035193;28;20107;-72
2023/03/24 01:10:29;;;;;;;7.43;4.57;;;;;;;9.57;100.00;94799.22;5041510;28;20436;-72
2023/03/24 01:12:57;;;;;;;7.93;4.43;;;;;;;9.49;100.00;94803.22;5043064;28;20448;-71
2023/03/24 01:15:26;;;;;;;13.00;5.60;;;;;;;9.41;100.00;94814.34;5039008;28;20041;-71
2023/03/24 01:17:53;;;;;;;9.45;4.55;;;;;;;9.49;100.00;94824.22;5042197;28;20041;-71
2023/03/24 01:20:19;;;;;;;9.85;4.85;;;;;;;9.57;100.00;94824.69;5035975;28;20037;-71
2023/03/24 01:22:45;;;;;;;9.25;4.68;;;;;;;9.56;100.00;94823.91;5040045;28;20045;-71
2023/03/24 01:25:15;;;;;;;8.18;4.50;;;;;;;9.48;100.00;94816.63;5031037;28;20084;-71
2023/03/24 01:27:41;;;;;;;6.95;4.40;;;;;;;9.39;100.00;94819.09;5035642;28;20049;-71
2023/03/24 01:30:08;;;;;;;9.65;5.18;;;;;;;9.33;100.00;94825.47;5034219;28;20033;-71
2023/03/24 01:32:33;;;;;;;8.95;4.20;;;;;;;9.20;100.00;94821.63;5045682;28;20028;-71
2023/03/24 01:34:59;;;;;;;10.32;4.47;;;;;;;9.17;100.00;94816.94;5035368;28;20046;-71
2023/03/24 01:37:25;;;;;;;7.93;4.30;;;;;;;9.15;100.00;94811.97;5034994;28;20030;-71
2023/03/24 01:39:50;;;;;;;9.10;4.43;;;;;;;9.07;100.00;94806.53;5033153;28;20041;-71
2023/03/24 01:42:18;;;;;;;9.60;4.47;;;;;;;9.06;100.00;94802.34;5043759;28;20041;-71
2023/03/24 01:44:46;;;;;;;7.45;4.32;;;;;;;9.04;100.00;94801.81;5040648;28;20528;-71
2023/03/24 01:47:12;;;;;;;9.13;4.57;;;;;;;8.95;100.00;94788.50;5032634;28;20480;-71
2023/03/24 01:49:44;;;;;;;10.05;4.55;;;;;;;8.91;100.00;94792.78;5038353;28;20049;-71
2023/03/24 01:52:17;;;;;;;8.32;4.82;;;;;;;8.87;100.00;94781.25;5043137;28;20067;-71
2023/03/24 01:54:54;;;;;;;8.15;4.60;;;;;;;8.83;100.00;94776.56;5044478;28;20040;-71
2023/03/24 01:57:28;;;;;;;10.70;4.13;;;;;;;8.85;100.00;94781.53;5041012;28;20044;-71
2023/03/24 02:00:00;;;;;;;8.60;4.38;;;;;;;8.83;100.00;94776.56;5038487;28;20048;-71
2023/03/24 02:02:26;;;;;;;9.07;4.22;;;;;;;8.83;100.00;94779.19;5044601;28;20037;-71
2023/03/24 02:04:57;;;;;;;8.23;4.68;;;;;;;8.87;100.00;94781.25;5034731;28;20041;-70
2023/03/24 02:07:35;;;;;;;12.02;4.68;;;;;;;8.79;100.00;94786.03;5030761;28;20069;-71
2023/03/24 02:10:05;;;;;;;9.50;4.40;;;;;;;8.90;100.00;94791.19;5041624;28;20448;-71
2023/03/24 02:12:31;;;;;;;10.73;4.40;;;;;;;8.86;100.00;94784.94;5048918;28;20036;-71
2023/03/24 02:14:58;;;;;;;7.78;4.47;;;;;;;8.86;100.00;94790.19;5038303;28;20095;-71
2023/03/24 02:17:36;;;;;;;11.07;4.45;;;;;;;9.04;100.00;94797.38;5029230;28;20041;-71
2023/03/24 02:20:09;;;;;;;8.48;4.65;;;;;;;9.05;100.00;94798.16;5040164;28;20102;-71
2023/03/24 02:23:16;;;;;;;16.55;4.53;;;;;;;9.07;100.00;94802.06;5040515;28;20072;-71
2023/03/24 02:26:00;;;;;;;10.00;4.28;;;;;;;9.04;100.00;94781.63;5045021;28;20044;-71
2023/03/24 02:28:42;;;;;;;8.00;4.28;;;;;;;9.04;100.00;94786.88;5038293;28;20051;-71
2023/03/24 02:31:33;;;;;;;11.32;4.60;;;;;;;8.95;100.00;94788.50;5033570;28;20033;-71
2023/03/24 02:34:36;;;;;;;9.07;4.43;;;;;;;9.00;100.00;94791.09;5039703;28;20048;-71
2023/03/24 02:37:46;;;;;;;8.05;4.28;;;;;;;9.12;100.00;94793.34;5039719;28;20037;-71
2023/03/24 02:40:23;;;;;;;10.00;4.60;;;;;;;9.07;100.00;94791.56;5034283;28;20118;-71
2023/03/24 02:43:15;;;;;;;12.43;4.70;;;;;;;9.12;100.00;94796.78;5040725;28;20048;-71
2023/03/24 02:45:53;;;;;;;11.07;4.40;;;;;;;9.15;100.00;94806.72;5035147;28;20470;-71
2023/03/24 02:48:47;;;;;;;10.70;4.70;;;;;;;9.05;100.00;94796.31;5030004;28;20608;-71
2023/03/24 02:51:50;;;;;;;14.13;4.70;;;;;;;9.01;100.00;94797.94;5034299;28;20435;-71
2023/03/24 02:54:27;;;;;;;12.98;4.65;;;;;;;8.95;100.00;94799.00;5044877;28;20037;-71
2023/03/24 02:57:04;;;;;;;10.85;5.03;;;;;;;8.84;100.00;94782.59;5030054;28;20041;-71
2023/03/24 02:59:45;;;;;;;14.38;5.15;;;;;;;8.82;100.00;94788.13;5041644;28;20045;-71
2023/03/24 03:02:21;;;;;;;8.95;4.82;;;;;;;8.93;100.00;94775.69;5030040;28;20072;-71
2023/03/24 03:04:53;;;;;;;10.05;4.68;;;;;;;8.83;100.00;94775.78;5036951;28;20094;-71
2023/03/24 03:07:23;;;;;;;9.85;4.28;;;;;;;9.04;100.00;94771.13;5037961;28;20754;-72
2023/03/24 03:10:01;;;;;;;8.77;4.60;;;;;;;9.06;100.00;94774.25;5042594;28;20674;-71
2023/03/24 03:12:32;;;;;;;7.47;4.38;;;;;;;9.09;100.00;94773.69;5036429;28;20432;-71
2023/03/24 03:15:07;;;;;;;8.00;4.22;;;;;;;9.17;100.00;94770.47;5045715;28;20037;-71
2023/03/24 03:17:38;;;;;;;13.38;4.57;;;;;;;9.27;100.00;94758.31;5044343;28;20496;-71
2023/03/24 03:20:17;;;;;;;9.98;5.15;;;;;;;9.47;100.00;94768.59;5044876;28;20554;-70
2023/03/24 03:22:48;;;;;;;7.25;4.43;;;;;;;9.48;100.00;94758.84;5030523;28;20128;-71
2023/03/24 03:25:21;;;;;;;9.90;4.78;;;;;;;9.49;100.00;94761.19;5046556;28;20047;-70
2023/03/24 03:27:47;;;;;;;8.13;4.82;;;;;;;9.37;100.00;94755.56;5042913;28;20049;-71
2023/03/24 03:30:19;;;;;;;11.55;4.80;;;;;;;9.28;100.00;94749.34;5028529;28;20378;-72
2023/03/24 03:32:52;;;;;;;8.82;4.60;;;;;;;9.33;100.00;94751.94;5039768;28;20045;-70
2023/03/24 03:35:59;;;;;;;8.57;4.68;;;;;;;9.31;100.00;94749.59;5039974;28;20060;-71
2023/03/24 03:38:34;;;;;;;12.15;4.63;;;;;;;9.26;100.00;94741.00;5020527;28;20046;-71
2023/03/24 03:41:03;;;;;;;10.95;4.75;;;;;;;9.11;100.00;94739.31;5033307;28;20065;-72
2023/03/24 03:43:30;;;;;;;10.02;5.00;;;;;;;9.16;100.00;94732.13;5039334;28;20040;-71
2023/03/24 03:45:57;;;;;;;11.60;4.97;;;;;;;9.24;100.00;94732.59;5033318;28;20060;-71
2023/03/24 03:48:25;;;;;;;10.80;4.68;;;;;;;9.37;100.00;94726.69;5048518;28;20059;-71
2023/03/24 03:50:52;;;;;;;9.30;4.93;;;;;;;9.40;100.00;94720.88;5052038;28;20080;-71
2023/03/24 03:53:22;;;;;;;9.48;4.70;;;;;;;9.47;100.00;94710.81;5040563;28;20049;-72
2023/03/24 03:55:48;;;;;;;9.73;5.05;;;;;;;9.50;100.00;94698.97;5044407;28;20127;-71
2023/03/24 03:58:13;;;;;;;13.45;5.00;;;;;;;9.51;100.00;94696.06;5050786;28;20037;-71
2023/03/24 04:00:43;;;;;;;9.85;5.10;;;;;;;9.49;100.00;94682.41;5040730;28;20075;-71
2023/03/24 04:03:51;;;;;;;13.10;5.10;;;;;;;9.52;100.00;94687.13;5047559;28;20040;-71
2023/03/24 04:06:49;;;;;;;10.43;5.72;;;;;;;9.57;100.00;94674.97;5032071;28;20654;-72
2023/03/24 04:09:35;;;;;;;13.07;5.10;;;;;;;9.52;100.00;94666.09;5035992;28;20460;-71
2023/03/24 04:12:40;;;;;;;10.77;5.22;;;;;;;9.54;100.00;94669.22;5040199;28;20416;-71
2023/03/24 04:15:25;;;;;;;14.20;5.22;;;;;;;9.54;100.00;94674.47;5062045;28;20041;-72
2023/03/24 04:18:15;;;;;;;10.20;4.75;;;;;;;9.58;100.00;94669.41;5040425;28;20040;-71
2023/03/24 04:20:52;;;;;;;11.43;5.95;;;;;;;9.62;100.00;94662.53;5037301;28;20037;-72
2023/03/24 04:23:27;;;;;;;9.88;4.78;;;;;;;9.68;100.00;94668.50;5037681;28;20045;-71
2023/03/24 04:26:00;;;;;;;8.25;4.88;;;;;;;9.67;100.00;94677.47;5048236;28;20064;-71
2023/03/24 04:28:31;;;;;;;12.57;5.20;;;;;;;9.61;100.00;94678.59;5038798;28;20065;-71
2023/03/24 04:31:17;;;;;;;12.60;5.50;;;;;;;9.64;100.00;94670.13;5034954;28;20045;-72
2023/03/24 04:33:57;;;;;;;9.48;5.43;;;;;;;9.58;100.00;94676.53;5033686;28;20665;-71
2023/03/24 04:36:26;;;;;;;10.95;5.13;;;;;;;9.66;100.00;94681.16;5034643;28;20037;-72
2023/03/24 04:38:53;;;;;;;11.98;5.95;;;;;;;9.62;100.00;94678.28;5042921;28;20412;-71
2023/03/24 04:41:27;;;;;;;9.80;5.20;;;;;;;9.57;100.00;94674.97;5035401;28;20067;-72
2023/03/24 04:43:56;;;;;;;11.30;5.57;;;;;;;9.60;100.00;94666.53;5041416;28;20461;-71
2023/03/24 04:46:22;;;;;;;13.32;5.65;;;;;;;9.57;100.00;94667.06;5040418;28;20044;-71
2023/03/24 04:48:48;;;;;;;9.98;5.50;;;;;;;9.56;100.00;94668.16;5049656;28;20057;-71
2023/03/24 04:51:16;;;;;;;12.82;6.05;;;;;;;9.56;100.00;94670.78;5040815;28;20038;-71
2023/03/24 04:53:42;;;;;;;10.30;5.40;;;;;;;9.59;100.00;94676.25;5039349;28;20098;-71
2023/03/24 04:56:10;;;;;;;11.65;5.78;;;;;;;9.65;100.00;94674.34;5036347;28;20040;-71
2023/03/24 04:58:36;;;;;;;11.27;5.80;;;;;;;9.61;100.00;94678.59;5045251;28;20044;-71
2023/03/24 05:01:02;;;;;;;10.60;5.13;;;;;;;9.61;100.00;94683.84;5043718;28;20127;-71
2023/03/24 05:03:27;;;;;;;13.82;5.80;;;;;;;9.67;100.00;94682.72;5045622;28;20044;-72
2023/03/24 05:05:53;;;;;;;12.07;6.03;;;;;;;9.58;100.00;94669.41;5031531;28;20103;-71
2023/03/24 05:08:19;;;;;;;12.13;6.43;;;;;;;9.63;100.00;94666.72;5040152;28;20048;-72
2023/03/24 05:10:45;;;;;;;14.45;6.32;;;;;;;9.50;100.00;94673.47;5044690;28;20060;-72
2023/03/24 05:13:13;;;;;;;16.63;6.68;;;;;;;9.50;100.00;94683.97;5044831;28;20051;-71
2023/03/24 05:15:39;;;;;;;10.50;5.78;;;;;;;9.46;100.00;94688.22;5037567;28;20066;-72
2023/03/24 05:18:05;;;;;;;12.70;5.95;;;;;;;9.48;100.00;94706.31;5041032;28;20042;-72
2023/03/24 05:20:30;;;;;;;14.18;6.70;;;;;;;9.50;100.00;94715.50;5042329;28;20095;-71
2023/03/24 05:22:56;;;;;;;13.77;6.13;;;;;;;9.54;100.00;94713.88;5034811;28;20055;-72
2023/03/24 05:25:22;;;;;;;14.45;6.78;;;;;;;9.44;100.00;94711.38;5042548;28;20044;-71
2023/03/24 05:27:47;;;;;;;13.30;6.80;;;;;;;9.34;100.00;94712.25;5038873;28;20079;-72
2023/03/24 05:30:15;;;;;;;13.32;6.85;;;;;;;9.29;100.00;94719.41;5041674;28;20098;-72
2023/03/24 05:32:40;;;;;;;15.27;7.30;;;;;;;9.32;100.00;94716.22;5042478;28;20053;-72
2023/03/24 05:35:06;;;;;;;15.45;6.70;;;;;;;9.58;100.00;94716.69;5037854;28;20068;-71
2023/03/24 05:37:32;;;;;;;17.50;6.82;;;;;;;9.67;100.00;94724.75;5043708;28;20060;-72
2023/03/24 05:39:57;;;;;;;21.23;7.57;;;;;;;9.53;100.00;94725.44;5044243;28;20041;-72
2023/03/24 05:42:23;;;;;;;15.88;7.78;;;;;;;9.54;100.00;94731.47;5037020;28;20033;-72
2023/03/24 05:44:49;;;;;;;14.88;7.72;;;;;;;9.53;100.00;94730.69;5031667;28;20042;-71
2023/03/24 05:47:15;;;;;;;14.13;7.47;;;;;;;9.63;100.00;94731.63;5040961;28;20045;-72
2023/03/24 05:49:44;;;;;;;14.70;7.40;;;;;;;9.43;100.00;94736.06;5041515;28;20052;-72
2023/03/24 05:52:10;;;;;;;17.52;8.00;;;;;;;9.48;100.00;94725.50;5040820;28;20116;-72
2023/03/24 05:54:38;;;;;;;17.85;7.97;;;;;;;9.40;100.00;94718.25;5044390;28;20044;-72
2023/03/24 05:57:09;;;;;;;17.10;8.25;;;;;;;9.48;100.00;94715.00;5037103;28;20040;-72
2023/03/24 05:59:35;;;;;;;14.98;7.32;;;;;;;9.76;100.00;94732.78;5035931;28;20102;-71
2023/03/24 06:02:00;;;;;;;12.73;7.47;;;;;;;9.79;100.00;94725.09;5045488;28;20477;-72
2023/03/24 06:04:29;;;;;;;15.30;8.07;;;;;;;9.60;100.00;94735.59;5040522;28;20044;-72
2023/03/24 06:06:59;;;;;;;14.60;7.72;;;;;;;9.58;100.00;94726.44;5046824;28;20041;-72
2023/03/24 06:09:28;;;;;;;17.65;7.78;;;;;;;9.47;100.00;94721.31;5043901;28;20053;-72
2023/03/24 06:11:56;;;;;;;26.50;11.63;;;;;;;9.40;100.00;94731.38;5043749;28;20045;-73
2023/03/24 06:14:22;;;;;;;21.85;8.40;;;;;;;9.38;100.00;94720.38;5047654;28;20416;-72
2023/03/24 06:16:50;;;;;;;18.77;7.53;;;;;;;9.29;100.00;94708.91;5051380;28;20044;-71
2023/03/24 06:19:16;;;;;;;16.75;8.50;;;;;;;9.26;100.00;94691.09;5068115;28;20025;-72
2023/03/24 06:21:43;;;;;;;17.05;8.20;;;;;;;9.29;100.00;94687.91;5065689;28;20055;-72
2023/03/24 06:24:13;;;;;;;14.98;8.07;;;;;;;9.33;100.00;94678.41;5063410;28;20029;-73
2023/03/24 06:26:40;;;;;;;20.73;8.95;;;;;;;9.54;100.00;94679.72;5075872;28;20041;-72
2023/03/24 06:29:07;;;;;;;22.90;9.68;;;;;;;9.71;100.00;94667.94;5064322;28;20017;-74
2023/03/24 06:31:34;;;;;;;19.30;9.52;;;;;;;9.76;100.00;94661.84;5073853;28;20055;-72
2023/03/24 06:34:00;;;;;;;20.42;9.55;;;;;;;9.84;100.00;94661.97;5072425;28;20052;-73
2023/03/24 06:36:25;;;;;;;19.02;10.15;;;;;;;9.83;100.00;94675.41;5076331;28;20077;-74
2023/03/24 06:38:51;;;;;;;21.08;9.55;;;;;;;9.87;100.00;94671.91;5073158;28;20056;-74
2023/03/24 06:41:16;;;;;;;20.90;9.70;;;;;;;9.92;100.00;94684.19;5039322;28;20029;-77
2023/03/24 06:43:42;;;;;;;21.00;10.00;;;;;;;9.94;100.00;94681.28;5037283;28;20048;-76
2023/03/24 06:46:08;;;;;;;20.45;9.65;;;;;;;9.86;100.00;94675.59;5030104;28;20045;-74
2023/03/24 06:48:34;;;;;;;21.30;10.77;;;;;;;9.93;100.00;94663.94;5042579;28;20049;-74
2023/03/24 06:51:00;;;;;;;23.73;10.50;;;;;;;9.87;100.00;94668.53;5043096;28;20045;-75
2023/03/24 06:53:26;;;;;;;22.55;10.60;;;;;;;9.99;100.00;94662.81;5042089;28;20071;-74
2023/03/24 06:55:51;;;;;;;24.58;11.57;;;;;;;9.99;100.00;94662.81;5033865;28;20045;-75
2023/03/24 06:58:17;;;;;;;24.50;10.93;;;;;;;10.03;100.00;94663.81;5040109;28;20065;-74
2023/03/24 07:00:45;;;;;;;26.02;11.52;;;;;;;10.06;100.00;94663.25;5034517;28;20045;-75
2023/03/24 07:03:12;;;;;;;23.20;11.32;;;;;;;10.08;100.00;94671.63;5042235;28;20045;-72
2023/03/24 07:05:40;;;;;;;24.05;10.32;;;;;;;10.04;100.00;94674.03;5041071;28;20512;-73
2023/03/24 07:08:05;;;;;;;29.92;11.93;;;;;;;10.08;100.00;94674.25;5039537;28;20409;-74
2023/03/24 07:10:31;;;;;;;23.20;11.68;;;;;;;10.16;100.00;94673.59;5044602;28;20041;-74
2023/03/24 07:12:58;;;;;;;27.70;11.68;;;;;;;10.12;100.00;94677.09;5036510;28;20045;-74
2023/03/24 07:15:24;;;;;;;24.13;11.15;;;;;;;10.08;100.00;94686.63;5038798;28;20513;-74
2023/03/24 07:17:49;;;;;;;29.02;12.10;;;;;;;10.01;100.00;94692.22;5042207;28;20044;-74
2023/03/24 07:20:16;;;;;;;25.58;11.73;;;;;;;10.13;100.00;94695.22;5043593;28;20584;-71
2023/03/24 07:22:42;;;;;;;30.50;12.07;;;;;;;10.04;100.00;94702.97;5045551;28;20132;-71
2023/03/24 07:25:07;;;;;;;36.25;12.23;;;;;;;9.98;100.00;94709.34;5039810;28;20460;-71
2023/03/24 07:27:34;;;;;;;31.50;12.23;;;;;;;10.05;100.00;94703.72;5034111;28;20413;-72
2023/03/24 07:30:00;;;;;;;27.45;12.43;;;;;;;9.99;100.00;94704.88;5037996;28;20558;-71
2023/03/24 07:32:29;;;;;;;24.73;11.90;;;;;;;9.91;100.00;94716.03;5033894;28;20428;-74
2023/03/24 07:34:56;;;;;;;26.85;12.90;;;;;;;9.98;100.00;94734.84;5038720;28;20116;-73
2023/03/24 07:37:22;;;;;;;28.92;13.07;;;;;;;10.09;100.00;94749.41;5037816;28;20068;-72
2023/03/24 07:39:47;;;;;;;38.88;13.38;;;;;;;10.14;100.00;94762.50;5040384;28;20044;-72
2023/03/24 07:42:13;;;;;;;33.58;13.00;;;;;;;10.10;100.00;94779.09;5045036;28;20037;-72
2023/03/24 07:44:39;;;;;;;32.20;12.43;;;;;;;10.13;100.00;94778.53;5040549;28;20416;-72
2023/03/24 07:47:04;;;;;;;31.95;13.45;;;;;;;10.08;100.00;94770.75;5039575;28;20516;-72
2023/03/24 07:49:30;;;;;;;28.00;11.82;;;;;;;10.03;100.00;94769.75;5042490;28;20048;-72
2023/03/24 07:51:57;;;;;;;31.30;12.80;;;;;;;10.13;100.00;94773.28;5044858;28;20041;-71
2023/03/24 07:54:24;;;;;;;26.98;12.32;;;;;;;10.12;100.00;94780.41;5039133;28;20513;-71
2023/03/24 07:56:50;;;;;;;28.60;11.30;;;;;;;10.16;100.00;94786.66;5040768;28;20516;-71
2023/03/24 07:59:16;;;;;;;28.73;12.60;;;;;;;10.32;100.00;94789.09;5041329;28;20029;-71
2023/03/24 08:01:42;;;;;;;23.00;11.38;;;;;;;10.43;100.00;94779.22;5044726;28;20037;-71
2023/03/24 08:04:12;;;;;;;28.75;12.13;;;;;;;10.50;100.00;94783.06;5037912;28;20045;-71
2023/03/24 08:06:38;;;;;;;23.80;11.73;;;;;;;10.49;100.00;94792.00;5038143;28;20088;-74
2023/03/24 08:09:04;;;;;;;26.15;11.93;;;;;;;10.57;100.00;94783.47;5038774;28;20052;-74
2023/03/24 08:11:30;;;;;;;28.75;12.48;;;;;;;10.73;100.00;94791.13;5035676;28;20085;-74
2023/03/24 08:13:57;;;;;;;21.50;10.73;;;;;;;10.88;100.00;94788.25;5037096;28;20493;-72
2023/03/24 08:16:23;;;;;;;18.80;7.68;;;;;;;11.42;100.00;94787.84;5040998;28;20037;-72
2023/03/24 08:18:49;;;;;;;21.48;8.65;;;;;;;11.73;100.00;94782.78;5039650;28;20045;-72
2023/03/24 08:21:15;;;;;;;17.05;6.97;;;;;;;11.93;100.00;94778.19;5034701;28;20148;-71
2023/03/24 08:23:40;;;;;;;16.20;6.80;;;;;;;12.20;100.00;94777.38;5044214;28;20033;-72
2023/03/24 08:26:09;;;;;;;11.20;6.28;;;;;;;12.33;100.00;94778.41;5042604;28;20053;-72
2023/03/24 08:28:36;;;;;;;17.55;7.15;;;;;;;12.54;100.00;94776.09;5040104;28;20049;-72
2023/03/24 08:31:03;;;;;;;12.68;6.82;;;;;;;12.59;100.00;94786.53;5043108;28;20048;-73
2023/03/24 08:33:28;;;;;;;13.15;6.55;;;;;;;12.62;100.00;94793.84;5050188;28;20033;-71
2023/03/24 08:35:57;;;;;;;14.60;6.93;;;;;;;12.70;100.00;94783.66;5035123;28;20087;-72
2023/03/24 08:38:29;;;;;;;12.65;6.40;;;;;;;12.64;100.00;94791.69;5037050;28;20511;-72
2023/03/24 08:41:01;;;;;;;15.32;6.43;;;;;;;12.75;100.00;94791.44;5039994;28;20048;-72
2023/03/24 08:43:30;;;;;;;11.23;5.75;;;;;;;12.78;100.00;94793.50;5039295;28;20044;-72
2023/03/24 08:45:56;;;;;;;12.93;6.70;;;;;;;12.63;100.00;94800.69;5040627;28;20041;-72
2023/03/24 08:48:22;;;;;;;13.10;6.22;;;;;;;12.71;100.00;94801.06;5040722;28;20037;-72
2023/03/24 08:50:48;;;;;;;14.70;6.25;;;;;;;12.77;100.00;94802.47;5038204;28;20037;-73
2023/03/24 08:53:13;;;;;;;17.23;6.65;;;;;;;12.68;100.00;94809.56;5046298;28;20504;-72
2023/03/24 08:55:42;;;;;;;21.63;6.55;;;;;;;12.72;100.00;94808.66;5037456;28;20041;-72
2023/03/24 08:58:12;;;;;;;15.07;6.68;;;;;;;12.72;100.00;94808.66;5034247;28;20073;-72
2023/03/24 09:00:39;;;;;;;15.30;6.63;;;;;;;12.68;100.00;94817.50;5036135;28;20037;-72
2023/03/24 09:03:05;;;;;;;13.13;6.20;;;;;;;12.64;100.00;94823.38;5033850;28;20307;-72
2023/03/24 09:05:31;;;;;;;13.25;6.50;;;;;;;12.71;100.00;94832.72;5036357;28;20088;-71
2023/03/24 09:07:59;;;;;;;16.50;6.85;;;;;;;12.69;100.00;94826.97;5040470;28;20042;-71
2023/03/24 09:10:25;;;;;;;14.95;6.10;;;;;;;12.71;100.00;94811.59;5036750;28;20042;-71
2023/03/24 09:12:51;;;;;;;13.23;6.35;;;;;;;12.79;100.00;94818.81;5037965;28;20038;-71
2023/03/24 09:15:17;;;;;;;18.52;6.10;;;;;;;12.92;100.00;94812.69;5050389;28;20048;-71
2023/03/24 09:17:43;;;;;;;15.55;5.82;;;;;;;13.02;100.00;94816.19;5045790;28;20041;-71
2023/03/24 09:20:12;;;;;;;9.80;5.45;;;;;;;13.07;100.00;94818.69;5051515;28;20044;-72
2023/03/24 09:22:43;;;;;;;11.18;5.45;;;;;;;13.14;100.00;94824.31;5043697;28;20511;-72
2023/03/24 09:25:15;;;;;;;13.80;5.93;;;;;;;13.09;100.00;94832.38;5040584;28;20049;-72
2023/03/24 09:27:41;;;;;;;12.15;5.40;;;;;;;13.16;100.00;94816.88;5041306;28;20555;-71
2023/03/24 09:30:08;;;;;;;15.00;6.03;;;;;;;13.11;100.00;94817.78;5049550;28;20120;-72
2023/03/24 09:32:34;;;;;;;13.23;5.80;;;;;;;13.14;100.00;94834.88;5050345;28;20057;-72
2023/03/24 09:35:00;;;;;;;11.85;5.30;;;;;;;13.06;100.00;94822.41;5036181;28;20037;-72
2023/03/24 09:37:29;;;;;;;10.68;5.65;;;;;;;12.98;100.00;94843.16;5046175;28;20362;-72
2023/03/24 09:39:54;;;;;;;12.55;6.15;;;;;;;12.81;100.00;94838.56;5044389;28;20049;-71
2023/03/24 09:42:25;;;;;;;23.38;5.30;;;;;;;12.69;100.00;94840.19;5036131;28;20433;-72
2023/03/24 09:44:56;;;;;;;14.85;5.78;;;;;;;12.53;100.00;94843.16;5050433;28;20045;-72
2023/03/24 09:47:38;;;;;;;17.65;6.75;;;;;;;12.42;100.00;94847.09;5045485;28;20041;-73
2023/03/24 09:50:32;;;;;;;12.68;5.53;;;;;;;12.39;100.00;94852.97;5046008;28;20048;-73
2023/03/24 09:53:06;;;;;;;10.27;5.32;;;;;;;12.29;100.00;94860.00;5036041;28;20041;-72
2023/03/24 09:55:33;;;;;;;13.27;6.33;;;;;;;12.21;100.00;94860.72;5032600;28;20037;-75
2023/03/24 09:58:05;;;;;;;14.45;5.40;;;;;;;12.18;100.00;94853.38;5044284;28;20626;-73
2023/03/24 10:00:31;;;;;;;11.05;5.60;;;;;;;12.12;100.00;94859.81;5033423;28;20037;-71
2023/03/24 10:03:21;;;;;;;14.40;5.50;;;;;;;12.10;100.00;94864.63;5039556;28;20041;-72
2023/03/24 10:05:54;;;;;;;9.82;5.53;;;;;;;11.99;100.00;94865.91;5037416;28;20068;-72
2023/03/24 10:08:30;;;;;;;17.52;5.97;;;;;;;12.01;100.00;94869.81;5048939;28;20154;-71
2023/03/24 10:11:02;;;;;;;11.10;5.55;;;;;;;12.00;100.00;94875.38;5041753;28;20033;-72
2023/03/24 10:13:47;;;;;;;13.80;6.35;;;;;;;12.00;100.00;94872.75;5035221;28;20044;-72
2023/03/24 10:16:28;;;;;;;;;;;;;;;12.05;100.00;94885.81;5050205;28;20664;-71
2023/03/24 10:19:07;;;;;;;12.90;6.07;;;;;;;11.96;100.00;94889.13;5042705;28;20460;-72
2023/03/24 10:21:36;;;;;;;12.23;6.07;;;;;;;11.99;100.00;94887.00;5033996;28;20329;-71
2023/03/24 10:24:47;;;;;;;15.85;6.63;;;;;;;11.92;100.00;94893.41;5032684;28;20052;-72
2023/03/24 10:27:36;;;;;;;13.20;6.35;;;;;;;12.00;100.00;94896.47;5021251;28;20099;-72
2023/03/24 10:30:24;;;;;;;12.55;6.63;;;;;;;12.00;100.00;94899.09;5020016;28;20057;-72
2023/03/24 10:32:50;;;;;;;18.95;7.18;;;;;;;12.07;100.00;94907.41;5035097;28;20076;-72
2023/03/24 10:35:42;;;;;;;16.30;7.00;;;;;;;12.01;100.00;94903.28;5042966;28;20412;-72
2023/03/24 10:38:16;;;;;;;15.32;6.82;;;;;;;11.94;100.00;94901.84;5041852;28;20041;-72
2023/03/24 10:40:42;;;;;;;13.25;7.25;;;;;;;11.88;100.00;94902.97;5040913;28;20037;-72
2023/03/24 10:43:08;;;;;;;21.83;7.80;;;;;;;11.93;100.00;94905.53;5035130;28;20036;-72
2023/03/24 10:45:35;;;;;;;17.48;6.95;;;;;;;11.94;100.00;94901.84;5035019;28;22071;-72
2023/03/24 10:48:03;;;;;;;11.55;5.82;;;;;;;12.20;100.00;94903.22;5042916;28;20037;-72
2023/03/24 10:50:31;;;;;;;11.93;5.90;;;;;;;12.29;100.00;94902.22;5042598;28;20469;-71
2023/03/24 10:52:57;;;;;;;14.77;6.00;;;;;;;12.36;100.00;94901.03;5032903;28;20054;-72
2023/03/24 10:55:30;;;;;;;19.08;5.97;;;;;;;12.42;100.00;94905.13;5036883;28;20091;-72
2023/03/24 10:57:58;;;;;;;15.43;5.95;;;;;;;12.39;100.00;94900.44;5043503;28;20033;-71
2023/03/24 11:00:28;;;;;;;15.95;5.45;;;;;;;12.35;100.00;94920.59;5046190;28;20041;-72
2023/03/24 11:03:28;;;;;;;14.05;5.15;;;;;;;12.19;100.00;94923.50;5035325;28;20519;-72
2023/03/24 11:06:02;;;;;;;15.00;5.15;;;;;;;12.18;100.00;94921.94;5035115;28;20091;-70
2023/03/24 11:08:30;;;;;;;11.13;4.97;;;;;;;11.96;100.00;94910.22;5034535;28;20052;-73
2023/03/24 11:10:56;;;;;;;9.13;5.20;;;;;;;11.89;100.00;94917.72;5041727;28;20120;-69
2023/03/24 11:13:21;;;;;;;13.05;5.00;;;;;;;11.82;100.00;94914.66;5039839;28;20485;-70
2023/03/24 11:16:14;;;;;;;9.90;4.68;;;;;;;11.74;100.00;94912.72;5034434;28;20111;-70
2023/03/24 11:19:02;;;;;;;10.77;4.70;;;;;;;11.67;100.00;94907.06;5057439;28;20048;-71
2023/03/24 11:21:30;;;;;;;10.10;4.43;;;;;;;11.51;100.00;94909.94;5036737;28;20041;-71
2023/03/24 11:24:01;;;;;;;12.63;4.80;;;;;;;11.32;100.00;94906.56;5040980;28;20072;-70
2023/03/24 11:26:34;;;;;;;15.30;5.60;;;;;;;11.23;100.00;94909.88;5041274;28;20416;-71
2023/03/24 11:29:13;;;;;;;14.45;5.60;;;;;;;11.18;100.00;94917.84;5039448;28;20070;-71
2023/03/24 11:31:40;;;;;;;9.63;4.90;;;;;;;11.12;100.00;94921.63;5032757;28;20043;-70
2023/03/24 11:34:26;;;;;;;11.07;5.55;;;;;;;10.90;100.00;94912.47;5035849;28;20041;-70
2023/03/24 11:36:57;;;;;;;12.95;5.80;;;;;;;10.86;100.00;94874.63;5041897;28;20045;-71
2023/03/24 11:39:25;;;;;;;18.52;5.70;;;;;;;10.88;100.00;94872.47;5038804;28;20052;-69
2023/03/24 11:42:02;;;;;;;14.25;5.78;;;;;;;10.92;100.00;94862.94;5046424;28;20045;-69